Time;durP1;ratioP1;P1;durP2;ratioP2;P2;SDS_P1;SDS_P2;PMS_P1;PMS_P2;Temp;Humidity;BMP_temperature;BMP_pressure;BME280_temperature;BME280_humidity;BME280_pressure;Samples;Min_cycle;Max_cycle;Signal;HPM_P1;HPM_P2
2023/04/01 00:00:16;;;;;;;1.70;1.00;;;10.40;99.90;;;;;;4995640;28;20455;-71
2023/04/01 00:02:42;;;;;;;1.57;0.60;;;10.40;99.90;;;;;;5004780;28;20781;-72
2023/04/01 00:05:10;;;;;;;1.67;1.10;;;10.40;99.90;;;;;;4997899;28;20449;-71
2023/04/01 00:07:36;;;;;;;1.17;0.90;;;10.40;99.90;;;;;;5004574;28;20207;-73
2023/04/01 00:10:03;;;;;;;3.50;0.80;;;10.40;99.90;;;;;;4997863;28;20430;-71
2023/04/01 00:12:29;;;;;;;1.00;0.87;;;10.30;99.90;;;;;;4985598;28;20465;-72
2023/04/01 00:14:55;;;;;;;1.93;1.10;;;10.30;99.90;;;;;;4996644;28;20924;-71
2023/04/01 00:17:21;;;;;;;2.07;0.80;;;10.40;99.90;;;;;;4977088;28;20687;-72
2023/04/01 00:19:46;;;;;;;2.83;0.90;;;10.40;99.90;;;;;;4986634;28;20810;-72
2023/04/01 00:22:12;;;;;;;2.20;1.00;;;10.40;99.90;;;;;;4987273;28;20728;-70
2023/04/01 00:24:38;;;;;;;2.70;0.80;;;10.50;99.90;;;;;;5005137;28;20698;-72
2023/04/01 00:27:04;;;;;;;1.87;0.90;;;10.50;99.90;;;;;;5004640;28;20203;-72
2023/04/01 00:29:30;;;;;;;3.10;1.33;;;10.40;99.90;;;;;;4988499;28;20525;-73
2023/04/01 00:31:57;;;;;;;2.50;1.00;;;10.40;99.90;;;;;;4995032;28;20500;-72
2023/04/01 00:34:23;;;;;;;3.17;1.20;;;10.40;99.90;;;;;;4984828;28;20876;-72
2023/04/01 00:36:52;;;;;;;1.80;0.87;;;10.40;99.90;;;;;;5004752;28;20453;-72
2023/04/01 00:39:19;;;;;;;2.93;1.00;;;10.40;99.90;;;;;;4987515;28;20432;-71
2023/04/01 00:41:44;;;;;;;1.93;1.00;;;10.50;99.90;;;;;;4989427;28;20986;-71
2023/04/01 00:44:22;;;;;;;2.63;1.00;;;10.40;99.90;;;;;;5000541;28;20455;-71
2023/04/01 00:46:48;;;;;;;3.50;0.80;;;10.50;99.90;;;;;;4983360;28;20202;-71
2023/04/01 00:49:16;;;;;;;1.50;0.80;;;10.50;99.90;;;;;;5003133;28;20464;-70
2023/04/01 00:51:42;;;;;;;2.50;0.83;;;10.50;99.90;;;;;;4979515;28;20426;-72
2023/04/01 00:54:09;;;;;;;2.50;1.10;;;10.50;99.90;;;;;;4984018;28;20975;-71
2023/04/01 00:56:44;;;;;;;3.00;1.13;;;10.40;99.90;;;;;;4997825;28;20958;-71
2023/04/01 00:59:31;;;;;;;2.30;1.00;;;10.30;99.90;;;;;;4986265;28;20443;-71
2023/04/01 01:01:57;;;;;;;1.70;0.70;;;10.30;99.90;;;;;;4983533;28;20425;-71
2023/04/01 01:04:24;;;;;;;1.37;0.90;;;10.40;99.90;;;;;;5003017;28;20812;-73
2023/04/01 01:07:26;;;;;;;3.53;1.30;;;10.40;99.90;;;;;;5003852;28;20242;-72
2023/04/01 01:10:08;;;;;;;2.30;0.90;;;10.50;99.90;;;;;;4975658;28;20703;-71
2023/04/01 01:12:50;;;;;;;1.57;1.00;;;10.40;99.90;;;;;;4974981;28;20421;-71
2023/04/01 01:15:35;;;;;;;4.90;1.20;;;10.60;99.90;;;;;;4989828;28;20441;-71
2023/04/01 01:18:09;;;;;;;3.40;1.10;;;10.60;99.90;;;;;;4979350;28;20511;-73
2023/04/01 01:21:19;;;;;;;4.10;1.13;;;10.60;99.90;;;;;;5003595;28;20744;-72
2023/04/01 01:24:10;;;;;;;3.73;0.90;;;10.50;99.90;;;;;;4998111;28;20424;-72
2023/04/01 01:26:54;;;;;;;0.90;0.67;;;10.50;99.90;;;;;;4987092;28;20431;-71
2023/04/01 01:29:35;;;;;;;1.40;0.70;;;10.50;99.90;;;;;;4987143;28;20451;-72
2023/04/01 01:32:11;;;;;;;1.70;1.00;;;10.50;99.90;;;;;;4989708;28;20432;-72
2023/04/01 01:34:40;;;;;;;1.63;0.80;;;10.50;99.90;;;;;;4989619;28;20484;-71
2023/04/01 01:37:10;;;;;;;1.67;0.90;;;10.50;99.90;;;;;;4999999;28;20454;-71
2023/04/01 01:39:37;;;;;;;5.47;1.33;;;10.50;99.90;;;;;;4987940;28;20787;-71
2023/04/01 01:42:10;;;;;;;1.40;0.90;;;10.50;99.90;;;;;;4987489;28;20834;-72
2023/04/01 01:44:38;;;;;;;1.73;0.60;;;10.50;99.90;;;;;;5002084;28;20419;-70
2023/04/01 01:47:05;;;;;;;3.00;0.90;;;10.30;99.90;;;;;;4997114;28;20457;-70
2023/04/01 01:49:33;;;;;;;2.30;0.87;;;10.30;99.90;;;;;;5006605;28;20428;-71
2023/04/01 01:51:59;;;;;;;1.10;0.70;;;10.30;99.90;;;;;;5004070;28;20426;-71
2023/04/01 01:54:25;;;;;;;2.13;1.23;;;10.40;99.90;;;;;;4986310;28;20435;-73
2023/04/01 01:56:59;;;;;;;3.47;0.80;;;10.40;99.90;;;;;;4989578;28;20931;-72
2023/04/01 01:59:27;;;;;;;3.40;1.10;;;10.40;99.90;;;;;;4998376;28;20311;-71
2023/04/01 02:01:56;;;;;;;1.30;0.73;;;10.20;99.90;;;;;;4980292;28;20426;-72
2023/04/01 02:04:23;;;;;;;1.20;0.60;;;10.40;99.90;;;;;;4994527;28;20429;-72
2023/04/01 02:07:00;;;;;;;1.33;0.70;;;10.50;99.90;;;;;;5000052;28;20921;-72
2023/04/01 02:09:26;;;;;;;1.97;1.10;;;10.70;99.90;;;;;;5004193;28;20772;-71
2023/04/01 02:11:57;;;;;;;3.93;0.73;;;10.70;99.90;;;;;;4994716;28;20422;-71
2023/04/01 02:14:26;;;;;;;2.30;1.00;;;10.60;99.90;;;;;;4989138;28;20429;-70
2023/04/01 02:16:59;;;;;;;1.10;0.60;;;10.50;99.90;;;;;;4993170;28;20455;-70
2023/04/01 02:19:31;;;;;;;2.00;1.00;;;10.40;99.90;;;;;;4997790;28;20418;-71
2023/04/01 02:22:00;;;;;;;2.07;1.37;;;10.40;99.90;;;;;;4996519;28;20430;-71
2023/04/01 02:24:30;;;;;;;0.70;0.50;;;10.40;99.90;;;;;;4986458;28;20779;-72
2023/04/01 02:26:55;;;;;;;1.70;0.63;;;10.50;99.90;;;;;;4994112;28;20506;-72
2023/04/01 02:29:24;;;;;;;2.23;0.90;;;10.60;99.90;;;;;;4996732;28;20569;-73
2023/04/01 02:31:51;;;;;;;1.60;1.00;;;10.50;99.90;;;;;;4986146;28;20282;-73
2023/04/01 02:34:18;;;;;;;1.67;0.77;;;10.20;99.90;;;;;;4984964;28;20945;-71
2023/04/01 02:36:44;;;;;;;1.73;0.90;;;10.30;99.90;;;;;;4988309;28;20581;-70
2023/04/01 02:39:10;;;;;;;3.10;0.90;;;10.40;99.90;;;;;;4990981;28;20530;-71
2023/04/01 02:41:43;;;;;;;0.80;0.60;;;10.50;99.90;;;;;;4996604;28;20575;-72
2023/04/01 02:44:10;;;;;;;0.80;0.53;;;10.30;99.90;;;;;;5000189;28;20189;-73
2023/04/01 02:46:36;;;;;;;1.20;0.60;;;10.30;99.90;;;;;;4987957;28;20734;-72
2023/04/01 02:49:02;;;;;;;0.80;0.53;;;10.10;99.90;;;;;;5001429;28;20447;-72
2023/04/01 02:51:28;;;;;;;0.70;0.50;;;10.20;99.90;;;;;;4989707;28;20417;-71
2023/04/01 02:53:54;;;;;;;1.40;0.60;;;10.20;99.90;;;;;;4985090;28;20894;-72
2023/04/01 02:56:20;;;;;;;0.97;0.60;;;10.20;99.90;;;;;;4989359;28;20199;-71
2023/04/01 02:58:46;;;;;;;1.80;0.60;;;10.20;99.90;;;;;;4986550;28;20211;-72
2023/04/01 03:01:11;;;;;;;0.83;0.47;;;10.10;99.90;;;;;;5004302;28;20187;-71
2023/04/01 03:03:37;;;;;;;1.40;0.50;;;10.20;99.90;;;;;;5006237;28;20432;-72
2023/04/01 03:06:12;;;;;;;1.80;0.60;;;10.10;99.90;;;;;;4982677;28;20259;-72
2023/04/01 03:08:37;;;;;;;0.90;0.50;;;10.00;99.90;;;;;;5004491;28;20205;-70
2023/04/01 03:11:03;;;;;;;1.23;0.50;;;10.10;99.90;;;;;;4999879;28;20420;-71
2023/04/01 03:13:29;;;;;;;2.30;0.50;;;10.10;99.90;;;;;;4985005;28;20243;-71
2023/04/01 03:15:55;;;;;;;1.63;0.57;;;9.90;99.90;;;;;;5005652;28;20935;-71
2023/04/01 03:18:21;;;;;;;1.00;0.53;;;10.00;99.90;;;;;;4995785;28;20276;-71
2023/04/01 03:20:46;;;;;;;1.30;0.70;;;10.10;99.90;;;;;;4973918;28;20205;-71
2023/04/01 03:23:12;;;;;;;1.60;0.63;;;10.10;99.90;;;;;;5005805;28;20420;-71
2023/04/01 03:25:38;;;;;;;1.83;0.50;;;9.90;99.90;;;;;;4974403;28;20226;-70
2023/04/01 03:28:04;;;;;;;1.20;0.60;;;9.80;99.90;;;;;;5001064;28;20493;-70
2023/04/01 03:30:31;;;;;;;1.10;0.60;;;9.80;99.90;;;;;;5002326;28;20273;-69
2023/04/01 03:32:57;;;;;;;2.03;0.60;;;9.80;99.90;;;;;;5002116;28;20205;-70
2023/04/01 03:35:23;;;;;;;1.47;0.53;;;9.80;99.90;;;;;;4992994;28;20436;-71
2023/04/01 03:37:51;;;;;;;1.93;0.60;;;10.00;99.90;;;;;;4995485;28;20693;-72
2023/04/01 03:40:16;;;;;;;1.23;0.60;;;9.90;99.90;;;;;;4990726;28;20420;-71
2023/04/01 03:42:42;;;;;;;3.60;1.83;;;9.80;99.90;;;;;;4998208;28;20432;-69
2023/04/01 03:45:08;;;;;;;1.50;0.63;;;9.90;99.90;;;;;;4987086;28;20182;-71
2023/04/01 03:47:34;;;;;;;1.00;0.60;;;9.90;99.90;;;;;;4987482;28;20228;-71
2023/04/01 03:50:00;;;;;;;1.53;0.77;;;9.90;99.90;;;;;;4974730;28;20445;-72
2023/04/01 03:52:26;;;;;;;2.27;0.70;;;9.90;99.90;;;;;;5003367;28;20240;-72
2023/04/01 03:54:51;;;;;;;0.97;0.50;;;9.80;99.90;;;;;;5005132;28;20550;-71
2023/04/01 03:57:17;;;;;;;1.03;0.70;;;9.90;99.90;;;;;;4969697;28;20308;-72
2023/04/01 03:59:42;;;;;;;1.63;1.00;;;10.00;99.90;;;;;;4986335;28;20207;-70
2023/04/01 04:02:08;;;;;;;0.97;0.60;;;10.00;99.90;;;;;;4980633;28;20187;-71
2023/04/01 04:04:34;;;;;;;1.47;0.60;;;9.90;99.90;;;;;;4983490;28;20182;-70
2023/04/01 04:06:59;;;;;;;2.03;0.70;;;9.80;99.90;;;;;;4999318;28;20541;-73
2023/04/01 04:09:25;;;;;;;1.70;0.90;;;9.70;99.90;;;;;;5004594;28;20924;-71
2023/04/01 04:11:50;;;;;;;1.00;0.50;;;9.80;99.90;;;;;;4984281;28;20193;-72
2023/04/01 04:14:16;;;;;;;1.57;0.97;;;9.80;99.90;;;;;;4997730;28;20191;-72
2023/04/01 04:16:42;;;;;;;1.33;0.60;;;9.80;99.90;;;;;;5003029;28;20240;-72
2023/04/01 04:19:08;;;;;;;1.97;0.67;;;9.70;99.90;;;;;;4996950;28;20201;-72
2023/04/01 04:21:33;;;;;;;1.30;0.67;;;9.70;99.90;;;;;;4997912;28;20169;-72
2023/04/01 04:24:00;;;;;;;1.00;0.70;;;9.80;99.90;;;;;;4986151;28;20658;-72
2023/04/01 04:26:26;;;;;;;0.93;0.50;;;9.80;99.90;;;;;;4988153;28;20185;-71
2023/04/01 04:28:51;;;;;;;4.10;0.80;;;9.80;99.90;;;;;;4987012;28;20478;-70
2023/04/01 04:31:25;;;;;;;1.07;0.50;;;9.80;99.90;;;;;;4984980;28;20177;-70
2023/04/01 04:33:51;;;;;;;1.20;0.70;;;9.60;99.90;;;;;;4993157;28;20339;-71
2023/04/01 04:36:17;;;;;;;1.00;0.50;;;9.50;99.90;;;;;;4988495;28;20666;-71
2023/04/01 04:38:43;;;;;;;1.53;0.70;;;9.40;99.90;;;;;;4989170;28;20495;-71
2023/04/01 04:41:13;;;;;;;1.50;0.50;;;9.40;99.90;;;;;;5000315;28;20415;-71
2023/04/01 04:43:40;;;;;;;0.70;0.50;;;9.50;99.90;;;;;;4997512;28;20188;-72
2023/04/01 04:46:08;;;;;;;0.60;0.40;;;9.40;99.90;;;;;;5003747;28;20900;-72
2023/04/01 04:48:33;;;;;;;1.57;0.50;;;9.30;99.90;;;;;;4993519;28;20447;-71
2023/04/01 04:50:59;;;;;;;0.70;0.50;;;9.30;99.90;;;;;;4986042;28;20445;-71
2023/04/01 04:53:25;;;;;;;0.80;0.50;;;9.30;99.90;;;;;;4997197;28;20239;-71
2023/04/01 04:55:51;;;;;;;1.80;0.90;;;9.40;99.90;;;;;;4994693;28;20191;-71
2023/04/01 04:58:17;;;;;;;2.43;0.70;;;9.40;99.90;;;;;;5003900;28;20442;-71
2023/04/01 05:00:43;;;;;;;1.10;0.50;;;9.40;99.90;;;;;;4984349;28;20559;-71
2023/04/01 05:03:10;;;;;;;1.93;0.50;;;9.40;99.90;;;;;;4995723;28;20519;-71
2023/04/01 05:05:36;;;;;;;3.60;0.83;;;9.50;99.90;;;;;;4992828;28;20596;-71
2023/04/01 05:08:02;;;;;;;1.17;0.70;;;9.50;99.90;;;;;;4998755;28;20527;-71
2023/04/01 05:10:27;;;;;;;1.00;0.60;;;9.40;99.90;;;;;;4996886;28;20418;-72
2023/04/01 05:12:53;;;;;;;0.90;0.70;;;9.40;99.90;;;;;;4992982;28;20777;-72
2023/04/01 05:15:19;;;;;;;1.80;0.80;;;9.50;99.90;;;;;;4996638;28;20231;-71
2023/04/01 05:17:45;;;;;;;2.43;0.80;;;9.40;99.90;;;;;;5003009;28;20213;-73
2023/04/01 05:20:12;;;;;;;3.10;1.10;;;9.40;99.90;;;;;;4966499;28;20241;-70
2023/04/01 05:22:38;;;;;;;3.07;0.90;;;9.50;99.90;;;;;;5001819;28;20411;-72
2023/04/01 05:25:03;;;;;;;1.03;0.90;;;9.50;99.90;;;;;;4967925;28;20470;-71
2023/04/01 05:27:29;;;;;;;1.30;0.90;;;9.50;99.90;;;;;;4988983;28;20733;-71
2023/04/01 05:29:55;;;;;;;2.20;0.97;;;9.50;99.90;;;;;;4982761;28;20672;-71
2023/04/01 05:32:21;;;;;;;1.53;0.70;;;9.60;99.90;;;;;;4989018;28;20712;-71
2023/04/01 05:34:49;;;;;;;3.70;0.83;;;9.60;99.90;;;;;;4975514;28;20507;-71
2023/04/01 05:37:15;;;;;;;1.57;1.00;;;9.60;99.90;;;;;;4985670;28;20208;-72
2023/04/01 05:39:40;;;;;;;2.73;1.70;;;9.60;99.90;;;;;;4990752;28;20473;-71
2023/04/01 05:42:07;;;;;;;3.13;1.00;;;9.70;99.90;;;;;;5000041;28;20181;-71
2023/04/01 05:44:35;;;;;;;1.47;0.93;;;9.80;99.90;;;;;;5003699;28;20681;-71
2023/04/01 05:47:00;;;;;;;4.80;1.57;;;9.90;99.90;;;;;;5003208;28;20422;-71
2023/04/01 05:49:26;;;;;;;2.90;1.60;;;10.00;99.90;;;;;;5002877;28;20418;-72
2023/04/01 05:51:52;;;;;;;1.90;0.97;;;10.00;99.90;;;;;;4998368;28;20222;-71
2023/04/01 05:54:18;;;;;;;3.40;1.10;;;10.00;99.90;;;;;;4993352;28;20240;-71
2023/04/01 05:56:44;;;;;;;2.70;1.03;;;10.00;99.90;;;;;;5003414;28;20208;-72
2023/04/01 05:59:11;;;;;;;1.53;0.97;;;10.10;99.90;;;;;;5007523;28;20953;-71
2023/04/01 06:01:37;;;;;;;2.00;1.00;;;10.10;99.90;;;;;;5001316;28;20188;-71
2023/04/01 06:04:02;;;;;;;3.53;1.03;;;10.10;99.90;;;;;;4987263;28;20451;-72
2023/04/01 06:06:30;;;;;;;2.50;0.70;;;10.20;99.90;;;;;;5006927;28;20859;-72
2023/04/01 06:09:07;;;;;;;2.93;1.07;;;10.20;99.90;;;;;;4983706;28;20210;-72
2023/04/01 06:12:05;;;;;;;2.60;1.37;;;10.10;99.90;;;;;;4994730;28;20429;-70
2023/04/01 06:14:58;;;;;;;1.73;0.77;;;10.20;99.90;;;;;;4990690;28;20499;-73
2023/04/01 06:17:52;;;;;;;2.40;0.70;;;10.30;99.90;;;;;;4990347;28;21223;-73
2023/04/01 06:20:34;;;;;;;1.30;0.70;;;10.40;99.90;;;;;;5037785;22;20481;-71
2023/04/01 06:23:26;;;;;;;2.30;0.97;;;10.40;99.90;;;;;;5025361;28;20488;-72
2023/04/01 06:26:20;;;;;;;2.27;0.90;;;10.50;99.90;;;;;;5024863;28;20491;-72
2023/04/01 06:29:14;;;;;;;3.23;1.10;;;10.50;99.90;;;;;;5025008;28;20424;-71
2023/04/01 06:32:04;;;;;;;1.47;0.80;;;10.70;99.90;;;;;;5021633;28;20402;-71
2023/04/01 06:34:54;;;;;;;2.13;0.87;;;10.70;99.90;;;;;;5022964;28;20417;-71
2023/04/01 06:37:43;;;;;;;4.60;1.17;;;10.80;99.90;;;;;;5004095;28;20509;-71
2023/04/01 06:40:37;;;;;;;2.80;1.07;;;10.70;99.90;;;;;;5019355;28;20555;-71
2023/04/01 06:43:13;;;;;;;1.53;0.90;;;10.70;99.90;;;;;;5025368;28;20414;-70
2023/04/01 06:46:05;;;;;;;2.80;0.90;;;10.80;99.90;;;;;;5015736;28;20412;-72
2023/04/01 06:49:02;;;;;;;0.97;0.60;;;10.90;99.90;;;;;;5021195;28;20889;-73
2023/04/01 06:51:52;;;;;;;3.80;0.73;;;11.10;99.90;;;;;;5013018;28;20405;-72
2023/04/01 06:54:31;;;;;;;1.43;0.90;;;11.20;99.90;;;;;;5005532;28;20421;-71
2023/04/01 06:57:05;;;;;;;2.10;0.70;;;11.30;99.90;;;;;;5010550;28;20448;-70
2023/04/01 06:59:34;;;;;;;2.30;1.20;;;11.10;99.90;;;;;;5019399;28;20951;-70
2023/04/01 07:02:14;;;;;;;1.87;0.73;;;11.00;99.90;;;;;;5002900;28;20774;-71
2023/04/01 07:04:44;;;;;;;3.43;0.90;;;10.90;99.90;;;;;;5004998;28;20407;-71
2023/04/01 07:07:28;;;;;;;3.23;0.80;;;10.90;99.90;;;;;;5005708;28;20466;-71
2023/04/01 07:10:01;;;;;;;3.67;0.90;;;10.80;99.90;;;;;;5004365;28;20440;-71
2023/04/01 07:12:26;;;;;;;1.53;0.73;;;10.90;99.90;;;;;;5015611;28;20399;-71
2023/04/01 07:14:55;;;;;;;2.13;0.60;;;11.00;99.90;;;;;;5012271;28;20976;-71
2023/04/01 07:17:23;;;;;;;0.93;0.73;;;11.00;99.90;;;;;;5012715;28;20651;-71
2023/04/01 07:20:01;;;;;;;5.80;1.33;;;11.00;99.90;;;;;;5009962;28;20458;-72
2023/04/01 07:22:35;;;;;;;1.40;0.60;;;11.20;99.90;;;;;;5011011;28;20420;-72
2023/04/01 07:25:20;;;;;;;1.00;0.70;;;11.00;99.90;;;;;;5003311;28;20430;-72
2023/04/01 07:27:46;;;;;;;2.50;0.80;;;11.30;99.90;;;;;;5017660;28;20489;-72
2023/04/01 07:30:18;;;;;;;2.33;0.70;;;11.10;99.90;;;;;;5023844;28;20417;-72
2023/04/01 07:33:03;;;;;;;2.03;0.80;;;11.10;99.90;;;;;;5003668;28;20416;-71
2023/04/01 07:36:10;;;;;;;0.90;0.60;;;11.30;99.90;;;;;;5005302;28;20783;-72
2023/04/01 07:38:40;;;;;;;1.60;0.90;;;11.20;99.90;;;;;;5006082;28;20454;-73
2023/04/01 07:41:05;;;;;;;1.10;0.70;;;11.20;99.90;;;;;;5006825;28;20413;-72
2023/04/01 07:43:52;;;;;;;1.40;0.90;;;11.30;99.90;;;;;;5004982;28;20906;-72
2023/04/01 07:46:55;;;;;;;2.40;0.53;;;11.40;99.90;;;;;;5012659;28;20182;-72
2023/04/01 07:49:55;;;;;;;3.93;0.70;;;11.50;99.90;;;;;;5003195;28;20447;-72
2023/04/01 07:52:24;;;;;;;1.83;0.70;;;11.40;99.90;;;;;;5014069;28;20824;-72
2023/04/01 07:54:58;;;;;;;2.10;0.70;;;11.40;99.90;;;;;;5009346;28;20429;-71
2023/04/01 07:57:50;;;;;;;1.20;0.70;;;11.30;99.90;;;;;;5011520;28;21276;-72
2023/04/01 08:00:38;;;;;;;2.17;0.77;;;11.40;99.90;;;;;;5021001;28;20723;-71
2023/04/01 08:03:23;;;;;;;1.57;0.83;;;11.60;99.90;;;;;;5009172;28;20497;-74
2023/04/01 08:05:54;;;;;;;3.03;0.70;;;11.70;99.90;;;;;;5013010;28;20424;-73
2023/04/01 08:08:45;;;;;;;1.50;0.87;;;11.80;99.90;;;;;;5007242;28;20584;-72
2023/04/01 08:12:05;;;;;;;0.97;0.60;;;11.70;99.90;;;;;;5020893;28;20413;-73
2023/04/01 08:14:41;;;;;;;2.40;0.90;;;11.70;99.90;;;;;;4984921;28;20835;-72
2023/04/01 08:17:32;;;;;;;1.20;0.60;;;11.70;99.90;;;;;;5003481;28;20880;-71
2023/04/01 08:20:23;;;;;;;1.63;0.67;;;11.90;99.90;;;;;;4990462;28;20976;-72
2023/04/01 08:22:56;;;;;;;1.50;0.73;;;11.80;99.90;;;;;;5004617;28;20425;-72
2023/04/01 08:25:28;;;;;;;1.63;0.87;;;11.70;99.90;;;;;;5015165;28;20763;-72
2023/04/01 08:28:02;;;;;;;1.77;0.60;;;11.70;99.90;;;;;;5005676;28;20416;-72
2023/04/01 08:30:43;;;;;;;1.53;0.70;;;11.90;99.90;;;;;;5013005;28;20442;-73
2023/04/01 08:33:17;;;;;;;1.33;0.73;;;11.90;99.90;;;;;;5023672;28;20408;-72
2023/04/01 08:35:52;;;;;;;2.00;0.80;;;12.00;99.90;;;;;;5015969;28;20451;-72
2023/04/01 08:38:39;;;;;;;1.40;0.80;;;11.80;99.90;;;;;;5023683;28;20410;-72
2023/04/01 08:41:29;;;;;;;1.20;0.90;;;11.60;99.90;;;;;;5004275;28;20429;-72
2023/04/01 08:44:16;;;;;;;1.10;0.60;;;11.80;99.90;;;;;;4995871;28;21700;-72
2023/04/01 08:47:00;;;;;;;2.00;0.70;;;11.50;99.90;;;;;;5009596;28;20411;-73
2023/04/01 08:49:31;;;;;;;0.97;0.73;;;11.50;99.90;;;;;;5011121;28;20534;-73
2023/04/01 08:52:06;;;;;;;1.20;0.60;;;11.40;99.90;;;;;;5017532;28;20785;-73
2023/04/01 08:55:04;;;;;;;2.03;0.70;;;11.30;99.90;;;;;;5010372;28;20416;-73
2023/04/01 08:57:47;;;;;;;1.50;0.70;;;11.20;99.90;;;;;;5004439;28;20457;-72
2023/04/01 09:00:32;;;;;;;1.93;0.70;;;11.00;99.90;;;;;;5020069;28;20432;-73
2023/04/01 09:03:13;;;;;;;2.50;0.70;;;11.10;99.90;;;;;;5012747;28;20799;-72
2023/04/01 09:06:07;;;;;;;1.20;0.80;;;11.00;99.90;;;;;;5006903;28;20541;-72
2023/04/01 09:09:14;;;;;;;1.00;0.80;;;11.10;99.90;;;;;;5017616;28;20431;-72
2023/04/01 09:12:03;;;;;;;2.23;0.70;;;11.10;99.90;;;;;;5011574;28;20422;-73
2023/04/01 09:14:58;;;;;;;1.57;0.60;;;11.30;99.90;;;;;;5019030;28;20413;-72
2023/04/01 09:17:54;;;;;;;1.80;0.70;;;11.30;99.90;;;;;;5014283;28;20930;-73
2023/04/01 09:20:58;;;;;;;1.20;0.60;;;11.30;99.90;;;;;;5009364;28;20570;-73
2023/04/01 09:23:43;;;;;;;1.30;0.70;;;11.40;99.90;;;;;;5006806;28;20415;-72
2023/04/01 09:26:39;;;;;;;0.90;0.57;;;11.70;99.90;;;;;;5003740;28;20418;-72
2023/04/01 09:29:42;;;;;;;0.80;0.50;;;11.70;99.90;;;;;;5003519;28;20436;-72
2023/04/01 09:32:35;;;;;;;1.47;0.60;;;11.80;99.90;;;;;;5007660;28;20415;-72
2023/04/01 09:35:32;;;;;;;1.20;0.70;;;12.00;99.90;;;;;;5025740;28;20408;-73
2023/04/01 09:38:20;;;;;;;1.00;0.80;;;12.00;99.90;;;;;;5020906;28;20909;-72
2023/04/01 09:40:57;;;;;;;0.90;0.60;;;12.30;99.90;;;;;;5027300;28;20412;-73
2023/04/01 09:43:26;;;;;;;0.70;0.50;;;12.20;99.90;;;;;;5024461;28;20466;-73
2023/04/01 09:46:13;;;;;;;1.20;0.67;;;12.20;99.90;;;;;;5015954;28;20416;-73
2023/04/01 09:49:04;;;;;;;1.10;0.70;;;12.20;99.90;;;;;;5004538;28;20471;-73
2023/04/01 09:51:45;;;;;;;0.77;0.40;;;12.00;99.90;;;;;;5010015;28;20472;-73
2023/04/01 09:54:47;;;;;;;0.90;0.50;;;11.70;99.90;;;;;;5010307;28;20414;-73
2023/04/01 09:57:30;;;;;;;1.20;1.00;;;12.10;99.90;;;;;;5005942;28;21061;-73
2023/04/01 10:00:15;;;;;;;1.33;0.80;;;11.90;99.90;;;;;;5007705;28;20429;-72
2023/04/01 10:03:20;;;;;;;0.97;0.60;;;12.00;99.90;;;;;;5005505;28;20914;-73
2023/04/01 10:05:54;;;;;;;1.30;0.50;;;12.10;99.90;;;;;;5007979;28;20483;-73
2023/04/01 10:09:13;;;;;;;0.70;0.50;;;12.30;99.90;;;;;;5006462;28;20417;-73
2023/04/01 10:11:58;;;;;;;0.70;0.57;;;12.10;99.90;;;;;;4946931;28;20905;-73
2023/04/01 10:14:29;;;;;;;0.80;0.60;;;11.80;99.90;;;;;;5006260;28;20460;-73
2023/04/01 10:17:14;;;;;;;1.57;0.60;;;12.00;99.90;;;;;;5006353;28;20488;-71
2023/04/01 10:19:39;;;;;;;1.30;0.63;;;12.00;99.90;;;;;;5006127;28;20444;-71
2023/04/01 10:22:44;;;;;;;1.40;0.70;;;12.30;99.90;;;;;;5014290;28;20984;-71
2023/04/01 10:25:41;;;;;;;1.63;0.73;;;12.30;99.90;;;;;;5026378;28;20766;-72
2023/04/01 10:28:16;;;;;;;0.80;0.50;;;12.50;99.90;;;;;;5012501;28;20419;-72
2023/04/01 10:31:00;;;;;;;1.23;0.53;;;12.40;99.90;;;;;;5007204;28;20398;-73
2023/04/01 10:34:05;;;;;;;1.57;0.40;;;12.50;99.90;;;;;;5006874;28;20408;-72
2023/04/01 10:37:01;;;;;;;1.33;0.60;;;12.80;99.90;;;;;;5006581;28;20813;-72
2023/04/01 10:40:04;;;;;;;0.90;0.57;;;13.10;99.90;;;;;;5013170;28;20440;-72
2023/04/01 10:42:51;;;;;;;1.30;0.70;;;13.20;99.90;;;;;;5022987;28;20452;-71
2023/04/01 10:45:36;;;;;;;1.30;0.67;;;13.10;99.90;;;;;;5024931;28;20417;-71
2023/04/01 10:48:39;;;;;;;1.00;0.50;;;13.30;99.90;;;;;;5007501;28;20575;-71
2023/04/01 10:51:39;;;;;;;0.90;0.50;;;13.50;99.90;;;;;;5014924;28;20486;-71
2023/04/01 10:54:32;;;;;;;0.70;0.50;;;13.20;99.90;;;;;;5013944;28;20439;-72
2023/04/01 10:57:43;;;;;;;1.10;0.60;;;13.20;99.90;;;;;;5008173;28;20461;-71
2023/04/01 11:00:37;;;;;;;0.70;0.40;;;13.00;99.90;;;;;;5007287;28;20441;-72
2023/04/01 11:03:33;;;;;;;1.10;0.50;;;12.90;99.90;;;;;;5019026;28;20407;-72
2023/04/01 11:06:18;;;;;;;0.97;0.50;;;12.60;99.90;;;;;;5007278;28;20422;-72
2023/04/01 11:09:26;;;;;;;0.90;0.57;;;12.40;99.90;;;;;;5004996;28;20437;-72
2023/04/01 11:12:01;;;;;;;1.10;0.57;;;12.80;99.90;;;;;;4984573;28;20426;-72
2023/04/01 11:15:23;;;;;;;0.80;0.50;;;12.90;99.90;;;;;;5026050;28;20452;-72
2023/04/01 11:18:13;;;;;;;0.70;0.40;;;13.10;99.90;;;;;;4979761;28;20949;-72
2023/04/01 11:20:45;;;;;;;2.23;0.90;;;13.50;99.90;;;;;;4963850;28;20456;-74
2023/04/01 11:23:20;;;;;;;1.27;0.50;;;14.00;99.90;;;;;;4996775;28;20428;-72
2023/04/01 11:26:07;;;;;;;0.80;0.60;;;14.50;99.90;;;;;;5011298;28;20426;-72
2023/04/01 11:29:06;;;;;;;1.43;0.77;;;14.80;99.90;;;;;;5022146;28;20527;-72
2023/04/01 11:31:39;;;;;;;1.30;0.80;;;14.70;99.90;;;;;;5022873;28;20413;-72
2023/04/01 11:34:28;;;;;;;1.70;0.90;;;14.60;99.90;;;;;;5007777;28;20417;-72
2023/04/01 11:37:24;;;;;;;0.90;0.60;;;14.60;99.90;;;;;;5015437;28;20515;-73
2023/04/01 11:40:06;;;;;;;1.17;0.53;;;14.80;99.90;;;;;;5010282;28;20441;-72
2023/04/01 11:42:45;;;;;;;0.70;0.40;;;15.20;99.90;;;;;;5010431;28;20410;-72
2023/04/01 11:45:25;;;;;;;1.53;0.53;;;15.40;99.90;;;;;;5024810;28;20410;-73
2023/04/01 11:48:28;;;;;;;0.70;0.50;;;15.60;99.90;;;;;;5013829;28;20923;-72
2023/04/01 11:51:04;;;;;;;1.20;0.50;;;14.90;99.90;;;;;;5016339;28;20464;-72
2023/04/01 11:53:58;;;;;;;1.40;0.60;;;14.70;99.90;;;;;;5013996;28;20421;-72
2023/04/01 11:56:56;;;;;;;2.30;0.80;;;14.60;99.90;;;;;;5003548;28;20457;-73
2023/04/01 11:59:35;;;;;;;0.90;0.60;;;13.80;99.90;;;;;;5004830;28;20437;-72
2023/04/01 12:02:19;;;;;;;0.90;0.50;;;13.80;99.90;;;;;;5003520;28;20407;-72
2023/04/01 12:04:58;;;;;;;0.70;0.40;;;13.80;99.90;;;;;;5004180;28;20414;-73
2023/04/01 12:07:52;;;;;;;0.90;0.60;;;13.20;99.90;;;;;;5004308;28;20813;-72
2023/04/01 12:10:27;;;;;;;0.70;0.50;;;13.30;99.90;;;;;;5020922;28;20912;-72
2023/04/01 12:12:52;;;;;;;0.70;0.47;;;13.10;99.90;;;;;;5022549;28;20413;-72
2023/04/01 12:15:42;;;;;;;0.70;0.50;;;13.00;99.90;;;;;;5007410;28;20427;-72
2023/04/01 12:18:32;;;;;;;0.80;0.50;;;12.80;99.90;;;;;;5003900;28;20194;-72
2023/04/01 12:21:28;;;;;;;1.30;0.70;;;12.80;99.90;;;;;;5013792;28;20481;-73
2023/04/01 12:24:02;;;;;;;0.80;0.57;;;13.20;99.90;;;;;;5023687;28;20422;-72
2023/04/01 12:26:44;;;;;;;1.50;0.60;;;13.50;99.90;;;;;;5022408;28;20924;-72
2023/04/01 12:29:24;;;;;;;1.37;0.60;;;13.40;99.90;;;;;;5008417;28;20890;-72
2023/04/01 12:32:14;;;;;;;0.80;0.60;;;12.90;99.90;;;;;;5020971;28;20944;-72
2023/04/01 12:35:06;;;;;;;0.93;0.73;;;13.20;99.90;;;;;;5003486;28;20470;-72
2023/04/01 12:37:37;;;;;;;0.70;0.40;;;13.30;99.90;;;;;;5004046;28;20454;-72
2023/04/01 12:40:28;;;;;;;0.70;0.40;;;13.30;99.90;;;;;;5004220;28;20426;-72
2023/04/01 12:43:00;;;;;;;0.80;0.60;;;13.30;99.90;;;;;;5004134;28;20409;-72
2023/04/01 12:45:33;;;;;;;0.70;0.60;;;13.80;99.90;;;;;;5003950;28;20425;-72
2023/04/01 12:48:25;;;;;;;0.80;0.50;;;14.30;99.90;;;;;;5020346;28;20563;-72
2023/04/01 12:51:21;;;;;;;0.70;0.40;;;14.60;99.90;;;;;;5018382;28;20418;-72
2023/04/01 12:54:05;;;;;;;3.10;1.53;;;14.30;99.90;;;;;;5007930;28;20473;-73
2023/04/01 12:56:59;;;;;;;0.70;0.50;;;14.70;99.90;;;;;;5012523;28;20461;-73
2023/04/01 13:00:02;;;;;;;2.83;0.60;;;14.40;99.90;;;;;;5003201;28;20815;-73
2023/04/01 13:03:14;;;;;;;0.70;0.50;;;14.70;99.90;;;;;;5003932;28;20417;-72
2023/04/01 13:05:45;;;;;;;1.10;0.50;;;14.70;99.90;;;;;;5009537;28;20496;-72
2023/04/01 13:08:42;;;;;;;0.70;0.43;;;15.10;99.90;;;;;;5041660;22;20547;-71
2023/04/01 13:11:20;;;;;;;1.17;0.40;;;14.80;99.90;;;;;;5022199;28;20429;-73
2023/04/01 13:14:05;;;;;;;0.70;0.50;;;14.70;99.90;;;;;;5023751;28;20401;-72
2023/04/01 13:16:46;;;;;;;0.90;0.70;;;14.40;99.90;;;;;;5023679;28;20451;-72
2023/04/01 13:19:23;;;;;;;0.90;0.57;;;13.90;99.90;;;;;;5014278;28;20792;-70
2023/04/01 13:22:24;;;;;;;0.80;0.40;;;13.70;99.90;;;;;;5003678;28;20407;-71
2023/04/01 13:25:22;;;;;;;1.00;0.83;;;13.60;99.90;;;;;;5002401;28;20414;-70
2023/04/01 13:28:00;;;;;;;1.27;0.57;;;13.50;99.90;;;;;;4978760;28;20423;-71
2023/04/01 13:30:35;;;;;;;0.70;0.50;;;13.30;99.90;;;;;;5011775;28;20410;-71
2023/04/01 13:33:15;;;;;;;1.50;0.60;;;13.60;99.90;;;;;;5009390;28;20550;-71
2023/04/01 13:36:02;;;;;;;1.27;0.93;;;13.70;99.90;;;;;;5023466;28;20411;-71
2023/04/01 13:38:39;;;;;;;0.90;0.70;;;14.00;99.90;;;;;;5023531;28;20982;-72
2023/04/01 13:41:41;;;;;;;0.73;0.50;;;14.00;99.90;;;;;;5018770;28;20403;-71